sensor_id;sensor_type;location;lat;lon;timestamp;P1;durP1;ratioP1;P2;durP2;ratioP2
24613;SDS011;12760;46.296;25.290;2023-04-01T00:00:54;2.60;;;2.60;;
24613;SDS011;12760;46.296;25.290;2023-04-01T00:03:21;4.37;;;3.13;;
24613;SDS011;12760;46.296;25.290;2023-04-01T00:05:47;4.90;;;4.60;;
24613;SDS011;12760;46.296;25.290;2023-04-01T00:08:14;1.83;;;1.83;;
24613;SDS011;12760;46.296;25.290;2023-04-01T00:10:40;2.43;;;2.40;;
24613;SDS011;12760;46.296;25.290;2023-04-01T00:13:06;2.23;;;2.20;;
24613;SDS011;12760;46.296;25.290;2023-04-01T00:15:32;2.53;;;2.43;;
24613;SDS011;12760;46.296;25.290;2023-04-01T00:17:58;4.50;;;4.00;;
24613;SDS011;12760;46.296;25.290;2023-04-01T00:20:24;5.00;;;4.70;;
24613;SDS011;12760;46.296;25.290;2023-04-01T00:22:50;12.23;;;6.00;;
24613;SDS011;12760;46.296;25.290;2023-04-01T00:25:16;5.07;;;4.50;;
24613;SDS011;12760;46.296;25.290;2023-04-01T00:27:42;3.90;;;3.70;;
24613;SDS011;12760;46.296;25.290;2023-04-01T00:30:08;2.80;;;2.70;;
24613;SDS011;12760;46.296;25.290;2023-04-01T00:32:34;1.63;;;1.63;;
24613;SDS011;12760;46.296;25.290;2023-04-01T00:35:00;3.50;;;3.40;;
24613;SDS011;12760;46.296;25.290;2023-04-01T00:37:26;9.27;;;5.67;;
24613;SDS011;12760;46.296;25.290;2023-04-01T00:39:53;5.37;;;5.00;;
24613;SDS011;12760;46.296;25.290;2023-04-01T00:42:18;2.13;;;2.13;;
24613;SDS011;12760;46.296;25.290;2023-04-01T00:44:53;2.67;;;2.57;;
24613;SDS011;12760;46.296;25.290;2023-04-01T00:47:20;1.97;;;1.97;;
24613;SDS011;12760;46.296;25.290;2023-04-01T00:49:49;2.40;;;2.30;;
24613;SDS011;12760;46.296;25.290;2023-04-01T00:52:19;1.60;;;1.60;;
24613;SDS011;12760;46.296;25.290;2023-04-01T00:54:49;2.87;;;2.77;;
24613;SDS011;12760;46.296;25.290;2023-04-01T00:59:54;1.63;;;1.63;;
24613;SDS011;12760;46.296;25.290;2023-04-01T01:02:20;2.57;;;2.47;;
24613;SDS011;12760;46.296;25.290;2023-04-01T01:04:46;3.80;;;3.60;;
24613;SDS011;12760;46.296;25.290;2023-04-01T01:10:02;2.00;;;2.00;;
24613;SDS011;12760;46.296;25.290;2023-04-01T01:17:59;1.60;;;1.60;;
24613;SDS011;12760;46.296;25.290;2023-04-01T01:28:51;2.63;;;2.53;;
24613;SDS011;12760;46.296;25.290;2023-04-01T01:36:55;1.87;;;1.87;;
24613;SDS011;12760;46.296;25.290;2023-04-01T01:39:25;2.63;;;2.43;;
24613;SDS011;12760;46.296;25.290;2023-04-01T01:41:55;2.07;;;2.07;;
24613;SDS011;12760;46.296;25.290;2023-04-01T01:44:23;2.43;;;2.33;;
24613;SDS011;12760;46.296;25.290;2023-04-01T01:46:50;1.50;;;1.50;;
24613;SDS011;12760;46.296;25.290;2023-04-01T01:49:16;3.13;;;2.93;;
24613;SDS011;12760;46.296;25.290;2023-04-01T01:51:44;1.80;;;1.80;;
24613;SDS011;12760;46.296;25.290;2023-04-01T01:54:13;2.53;;;2.43;;
24613;SDS011;12760;46.296;25.290;2023-04-01T01:56:39;2.23;;;2.13;;
24613;SDS011;12760;46.296;25.290;2023-04-01T01:59:09;3.47;;;3.30;;
24613;SDS011;12760;46.296;25.290;2023-04-01T02:01:39;1.93;;;1.93;;
24613;SDS011;12760;46.296;25.290;2023-04-01T02:04:07;2.53;;;2.47;;
24613;SDS011;12760;46.296;25.290;2023-04-01T02:06:36;2.00;;;1.97;;
24613;SDS011;12760;46.296;25.290;2023-04-01T02:09:05;2.80;;;2.23;;
24613;SDS011;12760;46.296;25.290;2023-04-01T02:11:38;2.57;;;2.47;;
24613;SDS011;12760;46.296;25.290;2023-04-01T02:16:49;3.40;;;1.80;;
24613;SDS011;12760;46.296;25.290;2023-04-01T02:19:18;4.00;;;3.73;;
24613;SDS011;12760;46.296;25.290;2023-04-01T02:21:49;1.53;;;1.53;;
24613;SDS011;12760;46.296;25.290;2023-04-01T02:24:18;2.30;;;2.20;;
24613;SDS011;12760;46.296;25.290;2023-04-01T02:26:47;4.10;;;3.83;;
24613;SDS011;12760;46.296;25.290;2023-04-01T02:29:15;2.40;;;2.37;;
24613;SDS011;12760;46.296;25.290;2023-04-01T02:31:44;2.13;;;2.13;;
24613;SDS011;12760;46.296;25.290;2023-04-01T02:34:10;2.13;;;2.10;;
24613;SDS011;12760;46.296;25.290;2023-04-01T02:36:37;3.13;;;2.90;;
24613;SDS011;12760;46.296;25.290;2023-04-01T02:39:03;3.00;;;2.90;;
24613;SDS011;12760;46.296;25.290;2023-04-01T02:41:30;3.20;;;2.53;;
24613;SDS011;12760;46.296;25.290;2023-04-01T02:43:56;4.03;;;3.90;;
24613;SDS011;12760;46.296;25.290;2023-04-01T02:46:23;4.07;;;3.87;;
24613;SDS011;12760;46.296;25.290;2023-04-01T02:48:49;2.63;;;2.53;;
24613;SDS011;12760;46.296;25.290;2023-04-01T02:51:15;3.10;;;3.00;;
24613;SDS011;12760;46.296;25.290;2023-04-01T02:53:41;3.73;;;3.30;;
24613;SDS011;12760;46.296;25.290;2023-04-01T02:56:06;2.87;;;2.67;;
24613;SDS011;12760;46.296;25.290;2023-04-01T02:58:32;3.23;;;2.87;;
24613;SDS011;12760;46.296;25.290;2023-04-01T03:00:58;2.53;;;2.43;;
24613;SDS011;12760;46.296;25.290;2023-04-01T03:03:23;2.80;;;2.70;;
24613;SDS011;12760;46.296;25.290;2023-04-01T03:05:49;4.77;;;4.47;;
24613;SDS011;12760;46.296;25.290;2023-04-01T03:08:15;2.07;;;2.03;;
24613;SDS011;12760;46.296;25.290;2023-04-01T03:10:41;3.50;;;3.37;;
24613;SDS011;12760;46.296;25.290;2023-04-01T03:13:06;2.23;;;2.13;;
24613;SDS011;12760;46.296;25.290;2023-04-01T03:15:32;1.97;;;1.97;;
24613;SDS011;12760;46.296;25.290;2023-04-01T03:17:58;3.33;;;3.17;;
24613;SDS011;12760;46.296;25.290;2023-04-01T03:20:23;3.07;;;2.93;;
24613;SDS011;12760;46.296;25.290;2023-04-01T03:22:49;4.40;;;4.10;;
24613;SDS011;12760;46.296;25.290;2023-04-01T03:25:15;2.93;;;2.73;;
24613;SDS011;12760;46.296;25.290;2023-04-01T03:27:40;2.20;;;2.20;;
24613;SDS011;12760;46.296;25.290;2023-04-01T03:30:06;2.23;;;2.23;;
24613;SDS011;12760;46.296;25.290;2023-04-01T03:32:33;3.23;;;3.13;;
24613;SDS011;12760;46.296;25.290;2023-04-01T03:34:59;3.73;;;3.60;;
24613;SDS011;12760;46.296;25.290;2023-04-01T03:37:24;2.00;;;2.00;;
24613;SDS011;12760;46.296;25.290;2023-04-01T03:39:50;2.57;;;2.47;;
24613;SDS011;12760;46.296;25.290;2023-04-01T03:42:16;3.30;;;3.20;;
24613;SDS011;12760;46.296;25.290;2023-04-01T03:44:42;3.60;;;3.50;;
24613;SDS011;12760;46.296;25.290;2023-04-01T03:47:07;8.47;;;2.47;;
24613;SDS011;12760;46.296;25.290;2023-04-01T03:49:34;3.20;;;3.10;;
24613;SDS011;12760;46.296;25.290;2023-04-01T03:52:00;1.57;;;1.57;;
24613;SDS011;12760;46.296;25.290;2023-04-01T03:54:26;2.53;;;2.43;;
24613;SDS011;12760;46.296;25.290;2023-04-01T03:56:52;2.13;;;2.13;;
24613;SDS011;12760;46.296;25.290;2023-04-01T03:59:17;4.63;;;3.37;;
24613;SDS011;12760;46.296;25.290;2023-04-01T04:01:43;3.00;;;2.90;;
24613;SDS011;12760;46.296;25.290;2023-04-01T04:04:12;3.00;;;2.90;;
24613;SDS011;12760;46.296;25.290;2023-04-01T04:06:38;1.77;;;1.77;;
24613;SDS011;12760;46.296;25.290;2023-04-01T04:09:04;3.23;;;3.07;;
24613;SDS011;12760;46.296;25.290;2023-04-01T04:11:30;2.37;;;2.37;;
24613;SDS011;12760;46.296;25.290;2023-04-01T04:13:57;3.20;;;3.10;;
24613;SDS011;12760;46.296;25.290;2023-04-01T04:16:23;2.50;;;2.40;;
24613;SDS011;12760;46.296;25.290;2023-04-01T04:18:48;9.93;;;4.93;;
24613;SDS011;12760;46.296;25.290;2023-04-01T04:21:15;4.37;;;4.13;;
24613;SDS011;12760;46.296;25.290;2023-04-01T04:23:42;3.87;;;3.67;;
24613;SDS011;12760;46.296;25.290;2023-04-01T04:26:09;2.57;;;2.47;;
24613;SDS011;12760;46.296;25.290;2023-04-01T04:28:36;12.43;;;7.27;;
24613;SDS011;12760;46.296;25.290;2023-04-01T04:31:03;3.63;;;3.53;;
24613;SDS011;12760;46.296;25.290;2023-04-01T04:33:33;3.30;;;3.13;;
24613;SDS011;12760;46.296;25.290;2023-04-01T04:36:01;2.83;;;2.73;;
24613;SDS011;12760;46.296;25.290;2023-04-01T04:38:28;2.73;;;2.63;;
24613;SDS011;12760;46.296;25.290;2023-04-01T04:40:54;2.53;;;2.47;;
24613;SDS011;12760;46.296;25.290;2023-04-01T04:43:21;2.57;;;2.47;;
24613;SDS011;12760;46.296;25.290;2023-04-01T04:45:46;2.67;;;2.40;;
24613;SDS011;12760;46.296;25.290;2023-04-01T04:48:13;2.37;;;2.30;;
24613;SDS011;12760;46.296;25.290;2023-04-01T04:50:46;3.83;;;3.53;;
24613;SDS011;12760;46.296;25.290;2023-04-01T04:53:14;2.80;;;2.70;;
24613;SDS011;12760;46.296;25.290;2023-04-01T04:55:47;3.27;;;2.90;;
24613;SDS011;12760;46.296;25.290;2023-04-01T04:58:14;1.63;;;1.63;;
24613;SDS011;12760;46.296;25.290;2023-04-01T05:00:41;4.97;;;4.67;;
24613;SDS011;12760;46.296;25.290;2023-04-01T05:03:07;2.10;;;2.10;;
24613;SDS011;12760;46.296;25.290;2023-04-01T05:05:33;3.57;;;3.40;;
24613;SDS011;12760;46.296;25.290;2023-04-01T05:08:00;2.37;;;2.33;;
24613;SDS011;12760;46.296;25.290;2023-04-01T05:10:25;3.27;;;3.17;;
24613;SDS011;12760;46.296;25.290;2023-04-01T05:12:51;3.47;;;3.37;;
24613;SDS011;12760;46.296;25.290;2023-04-01T05:15:17;3.13;;;3.03;;
24613;SDS011;12760;46.296;25.290;2023-04-01T05:17:43;7.10;;;2.57;;
24613;SDS011;12760;46.296;25.290;2023-04-01T05:20:08;3.63;;;3.53;;
24613;SDS011;12760;46.296;25.290;2023-04-01T05:22:36;4.47;;;4.27;;
24613;SDS011;12760;46.296;25.290;2023-04-01T05:25:02;3.33;;;3.23;;
24613;SDS011;12760;46.296;25.290;2023-04-01T05:27:28;6.23;;;5.83;;
24613;SDS011;12760;46.296;25.290;2023-04-01T05:29:53;3.47;;;3.37;;
24613;SDS011;12760;46.296;25.290;2023-04-01T05:32:19;3.03;;;2.93;;
24613;SDS011;12760;46.296;25.290;2023-04-01T05:34:44;4.93;;;4.43;;
24613;SDS011;12760;46.296;25.290;2023-04-01T05:37:10;4.30;;;4.00;;
24613;SDS011;12760;46.296;25.290;2023-04-01T05:39:37;2.73;;;2.63;;
24613;SDS011;12760;46.296;25.290;2023-04-01T05:42:03;6.47;;;5.90;;
24613;SDS011;12760;46.296;25.290;2023-04-01T05:44:31;2.83;;;2.73;;
24613;SDS011;12760;46.296;25.290;2023-04-01T05:46:57;2.10;;;2.10;;
24613;SDS011;12760;46.296;25.290;2023-04-01T05:49:22;3.07;;;2.97;;
24613;SDS011;12760;46.296;25.290;2023-04-01T05:51:48;4.47;;;4.13;;
24613;SDS011;12760;46.296;25.290;2023-04-01T05:54:14;5.37;;;3.77;;
24613;SDS011;12760;46.296;25.290;2023-04-01T05:56:39;2.93;;;2.83;;
24613;SDS011;12760;46.296;25.290;2023-04-01T05:59:05;4.97;;;4.67;;
24613;SDS011;12760;46.296;25.290;2023-04-01T06:01:31;9.70;;;4.70;;
24613;SDS011;12760;46.296;25.290;2023-04-01T06:03:56;3.40;;;3.20;;
24613;SDS011;12760;46.296;25.290;2023-04-01T06:06:26;4.27;;;4.00;;
24613;SDS011;12760;46.296;25.290;2023-04-01T06:08:53;4.57;;;4.17;;
24613;SDS011;12760;46.296;25.290;2023-04-01T06:25:30;6.07;;;5.70;;
24613;SDS011;12760;46.296;25.290;2023-04-01T06:31:05;4.93;;;4.63;;
24613;SDS011;12760;46.296;25.290;2023-04-01T06:33:49;5.70;;;5.43;;
24613;SDS011;12760;46.296;25.290;2023-04-01T06:36:39;8.50;;;7.90;;
24613;SDS011;12760;46.296;25.290;2023-04-01T06:39:17;2.40;;;2.37;;
24613;SDS011;12760;46.296;25.290;2023-04-01T06:53:18;4.37;;;4.17;;
24613;SDS011;12760;46.296;25.290;2023-04-01T06:55:50;2.80;;;2.70;;
24613;SDS011;12760;46.296;25.290;2023-04-01T06:58:21;7.03;;;6.33;;
24613;SDS011;12760;46.296;25.290;2023-04-01T07:00:54;4.40;;;4.00;;
24613;SDS011;12760;46.296;25.290;2023-04-01T07:03:34;4.37;;;4.17;;
24613;SDS011;12760;46.296;25.290;2023-04-01T07:06:06;5.33;;;5.03;;
24613;SDS011;12760;46.296;25.290;2023-04-01T07:08:38;6.53;;;6.17;;
24613;SDS011;12760;46.296;25.290;2023-04-01T07:11:11;4.47;;;4.07;;
24613;SDS011;12760;46.296;25.290;2023-04-01T07:14:04;4.87;;;4.67;;
24613;SDS011;12760;46.296;25.290;2023-04-01T07:16:47;6.30;;;5.90;;
24613;SDS011;12760;46.296;25.290;2023-04-01T07:21:49;8.43;;;6.83;;
24613;SDS011;12760;46.296;25.290;2023-04-01T07:24:32;4.67;;;4.33;;
24613;SDS011;12760;46.296;25.290;2023-04-01T07:27:01;4.83;;;4.53;;
24613;SDS011;12760;46.296;25.290;2023-04-01T07:29:27;10.13;;;7.97;;
24613;SDS011;12760;46.296;25.290;2023-04-01T07:34:28;7.57;;;5.77;;
24613;SDS011;12760;46.296;25.290;2023-04-01T07:50:55;3.50;;;3.23;;
24613;SDS011;12760;46.296;25.290;2023-04-01T07:56:15;7.90;;;7.27;;
24613;SDS011;12760;46.296;25.290;2023-04-01T07:59:58;4.57;;;4.37;;
24613;SDS011;12760;46.296;25.290;2023-04-01T08:07:23;7.33;;;6.70;;
24613;SDS011;12760;46.296;25.290;2023-04-01T08:13:00;3.77;;;3.67;;
24613;SDS011;12760;46.296;25.290;2023-04-01T08:15:50;4.10;;;3.93;;
24613;SDS011;12760;46.296;25.290;2023-04-01T08:18:37;4.88;;;4.60;;
24613;SDS011;12760;46.296;25.290;2023-04-01T08:21:12;5.97;;;5.60;;
24613;SDS011;12760;46.296;25.290;2023-04-01T08:23:48;6.95;;;5.55;;
24613;SDS011;12760;46.296;25.290;2023-04-01T08:29:11;6.93;;;6.32;;
24613;SDS011;12760;46.296;25.290;2023-04-01T08:31:40;7.55;;;7.05;;
24613;SDS011;12760;46.296;25.290;2023-04-01T08:37:38;8.05;;;7.35;;
24613;SDS011;12760;46.296;25.290;2023-04-01T08:40:25;9.32;;;6.97;;
24613;SDS011;12760;46.296;25.290;2023-04-01T08:50:56;3.55;;;3.40;;
24613;SDS011;12760;46.296;25.290;2023-04-01T09:01:36;2.75;;;2.65;;
24613;SDS011;12760;46.296;25.290;2023-04-01T09:07:33;2.50;;;2.40;;
24613;SDS011;12760;46.296;25.290;2023-04-01T09:10:28;10.80;;;4.35;;
24613;SDS011;12760;46.296;25.290;2023-04-01T09:16:03;3.13;;;3.03;;
24613;SDS011;12760;46.296;25.290;2023-04-01T09:18:53;4.97;;;4.00;;
24613;SDS011;12760;46.296;25.290;2023-04-01T09:29:42;1.85;;;1.83;;
24613;SDS011;12760;46.296;25.290;2023-04-01T09:46:42;5.25;;;4.93;;
24613;SDS011;12760;46.296;25.290;2023-04-01T09:52:38;5.07;;;4.45;;
24613;SDS011;12760;46.296;25.290;2023-04-01T09:55:20;4.45;;;4.25;;
24613;SDS011;12760;46.296;25.290;2023-04-01T10:20:56;3.55;;;3.33;;
24613;SDS011;12760;46.296;25.290;2023-04-01T10:32:18;1.30;;;1.30;;
24613;SDS011;12760;46.296;25.290;2023-04-01T11:06:03;2.15;;;2.08;;
24613;SDS011;12760;46.296;25.290;2023-04-01T11:28:49;3.25;;;2.13;;
24613;SDS011;12760;46.296;25.290;2023-04-01T11:31:40;1.77;;;1.77;;
24613;SDS011;12760;46.296;25.290;2023-04-01T11:43:00;4.93;;;3.45;;
24613;SDS011;12760;46.296;25.290;2023-04-01T11:46:00;1.27;;;1.27;;
24613;SDS011;12760;46.296;25.290;2023-04-01T11:54:23;1.73;;;1.73;;
24613;SDS011;12760;46.296;25.290;2023-04-01T11:59:56;18.23;;;3.25;;
24613;SDS011;12760;46.296;25.290;2023-04-01T12:08:19;2.33;;;2.22;;
24613;SDS011;12760;46.296;25.290;2023-04-01T12:10:53;1.75;;;1.75;;
24613;SDS011;12760;46.296;25.290;2023-04-01T12:28:14;1.00;;;1.00;;
24613;SDS011;12760;46.296;25.290;2023-04-01T12:35:55;1.80;;;1.77;;
24613;SDS011;12760;46.296;25.290;2023-04-01T12:38:38;3.70;;;2.42;;
24613;SDS011;12760;46.296;25.290;2023-04-01T13:14:28;2.33;;;2.22;;
24613;SDS011;12760;46.296;25.290;2023-04-01T13:28:21;1.42;;;1.42;;
24613;SDS011;12760;46.296;25.290;2023-04-01T13:33:35;1.52;;;1.48;;
24613;SDS011;12760;46.296;25.290;2023-04-01T13:41:31;1.33;;;1.33;;
24613;SDS011;12760;46.296;25.290;2023-04-01T13:44:19;1.75;;;1.75;;
24613;SDS011;12760;46.296;25.290;2023-04-01T13:58:33;5.68;;;4.85;;
24613;SDS011;12760;46.296;25.290;2023-04-01T14:01:25;2.95;;;2.80;;
24613;SDS011;12760;46.296;25.290;2023-04-01T14:07:17;3.90;;;3.67;;
24613;SDS011;12760;46.296;25.290;2023-04-01T14:12:26;4.00;;;3.17;;
24613;SDS011;12760;46.296;25.290;2023-04-01T14:26:22;4.43;;;4.22;;
24613;SDS011;12760;46.296;25.290;2023-04-01T14:31:44;2.33;;;2.22;;
24613;SDS011;12760;46.296;25.290;2023-04-01T14:51:09;5.57;;;5.00;;
24613;SDS011;12760;46.296;25.290;2023-04-01T14:53:55;2.33;;;2.20;;
24613;SDS011;12760;46.296;25.290;2023-04-01T14:56:49;3.45;;;3.35;;
24613;SDS011;12760;46.296;25.290;2023-04-01T14:59:39;2.83;;;2.70;;
24613;SDS011;12760;46.296;25.290;2023-04-01T15:02:11;6.97;;;3.47;;
24613;SDS011;12760;46.296;25.290;2023-04-01T15:08:11;6.03;;;2.63;;
24613;SDS011;12760;46.296;25.290;2023-04-01T15:16:19;5.43;;;5.13;;
24613;SDS011;12760;46.296;25.290;2023-04-01T15:30:36;1.85;;;1.80;;
24613;SDS011;12760;46.296;25.290;2023-04-01T15:38:05;2.90;;;2.80;;
24613;SDS011;12760;46.296;25.290;2023-04-01T15:41:09;4.75;;;4.35;;
24613;SDS011;12760;46.296;25.290;2023-04-01T15:43:49;3.58;;;3.13;;
24613;SDS011;12760;46.296;25.290;2023-04-01T16:03:59;6.75;;;5.05;;
24613;SDS011;12760;46.296;25.290;2023-04-01T16:12:19;5.82;;;5.43;;
24613;SDS011;12760;46.296;25.290;2023-04-01T16:17:54;2.58;;;2.47;;
24613;SDS011;12760;46.296;25.290;2023-04-01T16:23:10;3.90;;;3.70;;
24613;SDS011;12760;46.296;25.290;2023-04-01T16:25:45;2.95;;;2.83;;
24613;SDS011;12760;46.296;25.290;2023-04-01T16:28:25;4.32;;;4.13;;
24613;SDS011;12760;46.296;25.290;2023-04-01T16:33:57;4.90;;;4.53;;
24613;SDS011;12760;46.296;25.290;2023-04-01T16:36:45;3.72;;;2.90;;
24613;SDS011;12760;46.296;25.290;2023-04-01T16:44:31;2.90;;;2.70;;
24613;SDS011;12760;46.296;25.290;2023-04-01T16:47:38;2.97;;;2.83;;
24613;SDS011;12760;46.296;25.290;2023-04-01T16:52:59;2.95;;;2.30;;
24613;SDS011;12760;46.296;25.290;2023-04-01T16:58:37;1.88;;;1.83;;
24613;SDS011;12760;46.296;25.290;2023-04-01T17:01:09;4.60;;;4.30;;
24613;SDS011;12760;46.296;25.290;2023-04-01T17:03:43;5.97;;;2.45;;
24613;SDS011;12760;46.296;25.290;2023-04-01T17:08:47;2.72;;;2.63;;
24613;SDS011;12760;46.296;25.290;2023-04-01T17:11:39;11.68;;;3.90;;
24613;SDS011;12760;46.296;25.290;2023-04-01T17:17:18;4.80;;;3.88;;
24613;SDS011;12760;46.296;25.290;2023-04-01T17:22:58;2.15;;;1.77;;
24613;SDS011;12760;46.296;25.290;2023-04-01T17:25:39;3.92;;;3.72;;
24613;SDS011;12760;46.296;25.290;2023-04-01T17:33:54;8.32;;;3.53;;
24613;SDS011;12760;46.296;25.290;2023-04-01T17:39:49;4.97;;;4.60;;
24613;SDS011;12760;46.296;25.290;2023-04-01T17:42:40;5.60;;;5.32;;
24613;SDS011;12760;46.296;25.290;2023-04-01T17:45:30;8.95;;;7.63;;
24613;SDS011;12760;46.296;25.290;2023-04-01T17:48:46;8.68;;;8.02;;
24613;SDS011;12760;46.296;25.290;2023-04-01T17:56:44;9.45;;;8.85;;
24613;SDS011;12760;46.296;25.290;2023-04-01T18:02:49;8.93;;;8.27;;
24613;SDS011;12760;46.296;25.290;2023-04-01T18:22:23;11.35;;;9.82;;
24613;SDS011;12760;46.296;25.290;2023-04-01T18:25:12;13.20;;;11.88;;
24613;SDS011;12760;46.296;25.290;2023-04-01T18:28:14;10.77;;;10.10;;
24613;SDS011;12760;46.296;25.290;2023-04-01T18:30:57;9.43;;;8.10;;
24613;SDS011;12760;46.296;25.290;2023-04-01T18:36:24;7.55;;;6.45;;
24613;SDS011;12760;46.296;25.290;2023-04-01T18:41:54;11.13;;;10.20;;
24613;SDS011;12760;46.296;25.290;2023-04-01T18:49:52;5.50;;;4.97;;
24613;SDS011;12760;46.296;25.290;2023-04-01T18:52:36;6.88;;;6.38;;
24613;SDS011;12760;46.296;25.290;2023-04-01T18:58:18;13.52;;;12.10;;
24613;SDS011;12760;46.296;25.290;2023-04-01T19:03:43;7.05;;;6.50;;
24613;SDS011;12760;46.296;25.290;2023-04-01T19:06:40;7.78;;;7.03;;
24613;SDS011;12760;46.296;25.290;2023-04-01T19:09:11;4.95;;;4.65;;
24613;SDS011;12760;46.296;25.290;2023-04-01T19:12:01;7.07;;;6.57;;
24613;SDS011;12760;46.296;25.290;2023-04-01T19:21:01;4.35;;;4.18;;
24613;SDS011;12760;46.296;25.290;2023-04-01T19:28:25;9.45;;;8.85;;
24613;SDS011;12760;46.296;25.290;2023-04-01T19:38:59;6.45;;;6.00;;
24613;SDS011;12760;46.296;25.290;2023-04-01T19:41:36;9.95;;;6.53;;
24613;SDS011;12760;46.296;25.290;2023-04-01T19:56:15;5.47;;;5.18;;
24613;SDS011;12760;46.296;25.290;2023-04-01T20:02:19;6.43;;;5.22;;
24613;SDS011;12760;46.296;25.290;2023-04-01T20:04:51;8.20;;;7.15;;
24613;SDS011;12760;46.296;25.290;2023-04-01T20:10:30;14.23;;;10.27;;
24613;SDS011;12760;46.296;25.290;2023-04-01T20:15:54;6.50;;;6.20;;
24613;SDS011;12760;46.296;25.290;2023-04-01T20:21:51;12.82;;;7.00;;
24613;SDS011;12760;46.296;25.290;2023-04-01T20:26:45;5.35;;;5.05;;
24613;SDS011;12760;46.296;25.290;2023-04-01T20:35:20;10.23;;;7.78;;
24613;SDS011;12760;46.296;25.290;2023-04-01T20:48:58;7.07;;;6.22;;
24613;SDS011;12760;46.296;25.290;2023-04-01T20:51:26;3.75;;;3.45;;
24613;SDS011;12760;46.296;25.290;2023-04-01T20:54:10;6.97;;;5.93;;
24613;SDS011;12760;46.296;25.290;2023-04-01T20:56:44;6.80;;;6.25;;
24613;SDS011;12760;46.296;25.290;2023-04-01T21:05:38;6.15;;;5.30;;
24613;SDS011;12760;46.296;25.290;2023-04-01T21:11:46;8.00;;;7.35;;
24613;SDS011;12760;46.296;25.290;2023-04-01T21:20:53;4.97;;;4.70;;
24613;SDS011;12760;46.296;25.290;2023-04-01T21:26:19;5.22;;;4.75;;
24613;SDS011;12760;46.296;25.290;2023-04-01T21:34:37;5.05;;;4.78;;
24613;SDS011;12760;46.296;25.290;2023-04-01T21:37:20;4.65;;;4.45;;
24613;SDS011;12760;46.296;25.290;2023-04-01T21:40:02;6.53;;;5.97;;
24613;SDS011;12760;46.296;25.290;2023-04-01T21:59:20;4.75;;;4.38;;
24613;SDS011;12760;46.296;25.290;2023-04-01T22:04:44;3.55;;;3.40;;
24613;SDS011;12760;46.296;25.290;2023-04-01T22:07:25;2.25;;;2.25;;
24613;SDS011;12760;46.296;25.290;2023-04-01T22:10:15;5.88;;;5.50;;
24613;SDS011;12760;46.296;25.290;2023-04-01T22:13:22;5.28;;;5.00;;
24613;SDS011;12760;46.296;25.290;2023-04-01T22:16:10;5.78;;;5.40;;
24613;SDS011;12760;46.296;25.290;2023-04-01T22:19:30;5.90;;;5.47;;
24613;SDS011;12760;46.296;25.290;2023-04-01T22:22:08;6.97;;;5.95;;
24613;SDS011;12760;46.296;25.290;2023-04-01T22:27:14;6.18;;;5.70;;
24613;SDS011;12760;46.296;25.290;2023-04-01T22:32:14;6.60;;;6.20;;
24613;SDS011;12760;46.296;25.290;2023-04-01T22:34:49;4.57;;;4.28;;
24613;SDS011;12760;46.296;25.290;2023-04-01T22:40:33;5.43;;;5.10;;
24613;SDS011;12760;46.296;25.290;2023-04-01T22:43:08;5.88;;;5.50;;
24613;SDS011;12760;46.296;25.290;2023-04-01T22:56:44;5.53;;;5.10;;
24613;SDS011;12760;46.296;25.290;2023-04-01T23:01:57;7.30;;;6.00;;
24613;SDS011;12760;46.296;25.290;2023-04-01T23:04:33;6.05;;;5.00;;
24613;SDS011;12760;46.296;25.290;2023-04-01T23:07:10;3.65;;;3.45;;
24613;SDS011;12760;46.296;25.290;2023-04-01T23:10:00;4.10;;;3.90;;
24613;SDS011;12760;46.296;25.290;2023-04-01T23:12:28;4.15;;;3.95;;
24613;SDS011;12760;46.296;25.290;2023-04-01T23:14:56;9.20;;;4.60;;
24613;SDS011;12760;46.296;25.290;2023-04-01T23:17:36;7.50;;;6.93;;
24613;SDS011;12760;46.296;25.290;2023-04-01T23:23:24;5.72;;;5.38;;
24613;SDS011;12760;46.296;25.290;2023-04-01T23:26:04;4.80;;;4.38;;
24613;SDS011;12760;46.296;25.290;2023-04-01T23:28:49;6.00;;;5.57;;
24613;SDS011;12760;46.296;25.290;2023-04-01T23:31:27;3.28;;;3.17;;
24613;SDS011;12760;46.296;25.290;2023-04-01T23:33:55;6.03;;;5.65;;
24613;SDS011;12760;46.296;25.290;2023-04-01T23:36:23;5.03;;;4.78;;
24613;SDS011;12760;46.296;25.290;2023-04-01T23:38:49;4.07;;;3.88;;
24613;SDS011;12760;46.296;25.290;2023-04-01T23:41:20;5.13;;;4.82;;
24613;SDS011;12760;46.296;25.290;2023-04-01T23:44:03;5.85;;;5.38;;
24613;SDS011;12760;46.296;25.290;2023-04-01T23:46:35;5.38;;;4.88;;
24613;SDS011;12760;46.296;25.290;2023-04-01T23:49:03;7.57;;;5.63;;
24613;SDS011;12760;46.296;25.290;2023-04-01T23:51:38;6.25;;;5.82;;
24613;SDS011;12760;46.296;25.290;2023-04-01T23:54:13;5.28;;;4.97;;
24613;SDS011;12760;46.296;25.290;2023-04-01T23:56:44;3.20;;;3.10;;
24613;SDS011;12760;46.296;25.290;2023-04-01T23:59:37;6.22;;;5.82;;
